createdAt,value
2019-01-19T00:02:24.367Z,98656.67
2019-01-19T00:05:30.781Z,98636.13
2019-01-19T00:08:30.536Z,98650.52
2019-01-19T00:12:01.862Z,98634.77
2019-01-19T00:14:57.764Z,98634.77
2019-01-19T00:18:19.827Z,98627.06
2019-01-19T00:21:29.831Z,98623.88
2019-01-19T00:24:47.881Z,98623.88
2019-01-19T00:27:40.594Z,98637.72
2019-01-19T00:30:34.826Z,98634.56
2019-01-19T00:33:46.626Z,98634.56
2019-01-19T00:36:43.410Z,98629.98
2019-01-19T00:40:46.101Z,98631.87
2019-01-19T00:44:02.894Z,98637.75
2019-01-19T00:46:58.425Z,98624.92
2019-01-19T00:49:32.992Z,98624.92
2019-01-19T00:53:10.865Z,98630.28
2019-01-19T00:56:37.878Z,98627.55
2019-01-19T00:59:20.793Z,98615.83
2019-01-19T01:02:27.789Z,98615.83
2019-01-19T01:05:34.814Z,98628.10
2019-01-19T01:08:50.881Z,98627.81
2019-01-19T01:11:52.873Z,98627.81
2019-01-19T01:14:45.874Z,98630.89
2019-01-19T01:17:47.865Z,98625.89
2019-01-19T01:21:37.919Z,98625.89
2019-01-19T01:24:26.826Z,98629.59
2019-01-19T01:27:18.414Z,98629.59
2019-01-19T01:30:39.801Z,98623.19
2019-01-19T01:33:47.863Z,98623.66
2019-01-19T01:36:42.890Z,98626.63
2019-01-19T01:39:52.924Z,98614.09
2019-01-19T01:43:13.723Z,98606.56
2019-01-19T01:46:11.895Z,98606.56
2019-01-19T01:49:28.908Z,98606.01
2019-01-19T01:52:45.906Z,98618.08
2019-01-19T01:55:42.886Z,98620.70
2019-01-19T01:58:27.952Z,98612.45
2019-01-19T02:01:49.803Z,98608.42
2019-01-19T02:05:06.785Z,98608.42
2019-01-19T02:08:02.929Z,98610.56
2019-01-19T02:11:32.810Z,98600.42
2019-01-19T02:14:32.118Z,98600.42
2019-01-19T02:18:21.397Z,98606.78
2019-01-19T02:22:07.018Z,98608.35
2019-01-19T02:25:24.827Z,98605.95
2019-01-19T02:28:08.636Z,98605.95
2019-01-19T02:31:42.799Z,98607.53
2019-01-19T02:35:10.809Z,98609.89
2019-01-19T02:37:53.856Z,98606.98
2019-01-19T02:40:43.881Z,98586.39
2019-01-19T02:44:01.941Z,98597.86
2019-01-19T02:47:45.831Z,98596.83
2019-01-19T02:50:27.825Z,98596.83
2019-01-19T02:53:16.832Z,98582.70
2019-01-19T02:56:29.901Z,98573.35
2019-01-19T02:59:52.762Z,98579.75
2019-01-19T03:03:02.049Z,98579.75
2019-01-19T03:06:12.775Z,98577.34
2019-01-19T03:09:04.807Z,98577.34
2019-01-19T03:12:09.837Z,98576.27
2019-01-19T03:15:17.804Z,98572.78
2019-01-19T03:18:50.819Z,98572.78
2019-01-19T03:21:57.863Z,98570.34
2019-01-19T03:25:09.757Z,98557.28
2019-01-19T03:27:54.821Z,98557.28
2019-01-19T03:31:13.924Z,98570.67
2019-01-19T03:34:12.774Z,98551.66
2019-01-19T03:37:26.233Z,98551.66
2019-01-19T03:40:44.800Z,98563.13
2019-01-19T03:44:10.786Z,98563.17
2019-01-19T03:47:32.768Z,98565.53
2019-01-19T03:50:51.850Z,98565.02
2019-01-19T03:53:54.658Z,98562.59
2019-01-19T03:56:59.754Z,98562.30
2019-01-19T04:00:34.834Z,98562.30
2019-01-19T04:03:26.855Z,98555.38
2019-01-19T04:06:19.826Z,98552.99
2019-01-19T04:10:04.881Z,98549.01
2019-01-19T04:13:41.836Z,98525.27
2019-01-19T04:16:59.784Z,98543.38
2019-01-19T04:20:09.878Z,98543.38
2019-01-19T04:22:46.076Z,98541.83
2019-01-19T04:25:58.906Z,98541.83
2019-01-19T04:28:27.893Z,98542.05
2019-01-19T04:30:57.897Z,98538.88
2019-01-19T04:33:27.860Z,98523.37
2019-01-19T04:35:56.678Z,98539.63
2019-01-19T04:38:26.403Z,98539.63
2019-01-19T04:40:56.786Z,98535.38
2019-01-19T04:43:25.858Z,98538.59
2019-01-19T04:45:56.841Z,98524.17
2019-01-19T04:48:29.069Z,98524.17
2019-01-19T04:50:58.878Z,98527.96
2019-01-19T04:53:28.887Z,98530.83
2019-01-19T04:56:00.106Z,98524.19
2019-01-19T04:58:29.798Z,98525.52
2019-01-19T05:00:59.899Z,98525.83
2019-01-19T05:03:32.875Z,98508.22
2019-01-19T05:06:02.037Z,98507.41
2019-01-19T05:08:31.791Z,98516.77
2019-01-19T05:11:04.690Z,98516.26
2019-01-19T05:13:34.790Z,98516.26
2019-01-19T05:16:04.816Z,98510.62
2019-01-19T05:18:34.963Z,98515.14
2019-01-19T05:21:05.794Z,98491.95
2019-01-19T05:23:36.896Z,98491.95
2019-01-19T05:26:10.719Z,98502.09
2019-01-19T05:28:40.068Z,98506.90
2019-01-19T05:31:10.881Z,98508.22
2019-01-19T05:33:40.054Z,98504.75
2019-01-19T05:36:09.874Z,98504.75
2019-01-19T05:38:40.410Z,98505.94
2019-01-19T05:41:09.867Z,98505.94
2019-01-19T05:43:38.881Z,98501.38
2019-01-19T05:46:08.871Z,98502.28
2019-01-19T05:48:37.831Z,98498.55
2019-01-19T05:51:06.817Z,98498.55
2019-01-19T05:53:36.840Z,98494.04
2019-01-19T05:56:06.541Z,98499.09
2019-01-19T05:58:34.955Z,98486.52
2019-01-19T06:01:04.835Z,98499.86
2019-01-19T06:03:34.405Z,98499.86
2019-01-19T06:06:04.002Z,98500.17
2019-01-19T06:08:33.805Z,98489.63
2019-01-19T06:11:52.646Z,98494.81
2019-01-19T06:14:21.821Z,98494.81
2019-01-19T06:16:52.828Z,98499.36
2019-01-19T06:19:21.850Z,98499.36
2019-01-19T06:21:59.910Z,98492.96
2019-01-19T06:24:28.903Z,98491.38
2019-01-19T06:26:57.859Z,98458.59
2019-01-19T06:29:26.719Z,98475.38
2019-01-19T06:31:54.906Z,98475.38
2019-01-19T06:34:23.352Z,98472.47
2019-01-19T06:36:55.029Z,98472.47
2019-01-19T06:39:24.398Z,98488.72
2019-01-19T06:41:52.917Z,98487.13
2019-01-19T06:44:30.351Z,98468.73
2019-01-19T06:49:07.907Z,98482.34
2019-01-19T06:51:35.886Z,98486.31
2019-01-19T06:54:03.970Z,98483.66
2019-01-19T06:56:34.125Z,98469.74
2019-01-19T06:59:03.364Z,98469.74
2019-01-19T07:01:31.845Z,98488.98
2019-01-19T07:04:00.364Z,98491.34
2019-01-19T07:06:28.844Z,98491.34
2019-01-19T07:10:19.737Z,98487.92
2019-01-19T07:12:47.251Z,98487.92
2019-01-19T07:15:15.046Z,98493.48
2019-01-19T07:17:42.981Z,98491.63
2019-01-19T07:20:22.385Z,98490.00
2019-01-19T07:22:50.382Z,98493.73
2019-01-19T07:25:19.086Z,98490.50
2019-01-19T07:27:47.986Z,98496.19
2019-01-19T07:30:16.823Z,98493.54
2019-01-19T07:32:45.736Z,98493.54
2019-01-19T07:35:14.851Z,98493.80
2019-01-19T07:37:45.832Z,98498.59
2019-01-19T07:40:14.850Z,98493.55
2019-01-19T07:42:47.797Z,98494.37
2019-01-19T07:45:15.786Z,98497.07
2019-01-19T07:47:43.937Z,98494.63
2019-01-19T07:50:15.788Z,98492.77
2019-01-19T07:52:43.956Z,98492.77
2019-01-19T07:55:12.869Z,98506.33
2019-01-19T07:57:40.840Z,98497.58
2019-01-19T08:02:32.803Z,98501.33
2019-01-19T08:05:01.852Z,98501.33
2019-01-19T08:07:29.874Z,98497.58
2019-01-19T08:09:58.811Z,98505.05
2019-01-19T08:12:26.896Z,98505.05
2019-01-19T08:14:55.355Z,98504.48
2019-01-19T08:17:24.822Z,98504.03
2019-01-19T08:19:52.786Z,98504.03
2019-01-19T08:22:20.741Z,98502.70
2019-01-19T08:24:49.936Z,98510.12
2019-01-19T08:27:18.868Z,98487.20
2019-01-19T08:29:46.717Z,98506.95
2019-01-19T08:32:15.772Z,98506.95
2019-01-19T08:35:17.102Z,98504.86
2019-01-19T08:37:46.801Z,98511.51
2019-01-19T08:40:16.869Z,98509.41
2019-01-19T08:42:54.290Z,98511.00
2019-01-19T08:45:25.662Z,98511.00
2019-01-19T08:47:55.856Z,98504.91
2019-01-19T08:50:28.769Z,98495.64
2019-01-19T08:52:57.780Z,98502.08
2019-01-19T08:55:26.387Z,98502.08
2019-01-19T08:57:56.754Z,98498.64
2019-01-19T09:00:25.223Z,98502.34
2019-01-19T09:02:54.020Z,98502.12
2019-01-19T09:05:24.619Z,98464.75
2019-01-19T09:07:54.598Z,98464.75
2019-01-19T09:10:23.961Z,98499.20
2019-01-19T09:16:21.307Z,98494.17
2019-01-19T09:18:51.867Z,98496.80
2019-01-19T09:27:56.770Z,98485.15
2019-01-19T09:30:23.933Z,98494.50
2019-01-19T09:32:52.798Z,98490.27
2019-01-19T09:35:20.891Z,98490.27
2019-01-19T09:37:49.795Z,98494.81
2019-01-19T09:40:18.815Z,98494.81
2019-01-19T09:42:46.764Z,98485.75
2019-01-19T09:45:14.714Z,98486.56
2019-01-19T09:48:02.774Z,98491.08
2019-01-19T09:50:30.930Z,98482.30
2019-01-19T09:53:01.727Z,98486.30
2019-01-19T09:55:30.115Z,98488.41
2019-01-19T09:58:00.350Z,98487.61
2019-01-19T10:00:35.653Z,98487.61
2019-01-19T10:03:02.876Z,98488.12
2019-01-19T10:05:48.808Z,98485.75
2019-01-19T10:08:18.401Z,98485.75
2019-01-19T10:10:48.801Z,98486.89
2019-01-19T10:13:18.819Z,98486.89
2019-01-19T10:16:52.801Z,98476.50
2019-01-19T10:21:11.842Z,98479.44
2019-01-19T10:23:40.706Z,98488.50
2019-01-19T10:26:08.782Z,98478.36
2019-01-19T10:28:37.536Z,98482.08
2019-01-19T10:31:05.785Z,98483.16
2019-01-19T10:34:59.771Z,98469.86
2019-01-19T10:37:27.627Z,98468.52
2019-01-19T10:39:55.368Z,98473.06
2019-01-19T10:42:23.774Z,98473.84
2019-01-19T10:44:52.888Z,98475.72
2019-01-19T10:47:20.703Z,98473.06
2019-01-19T10:51:39.467Z,98468.25
2019-01-19T10:54:07.271Z,98472.52
2019-01-19T10:56:36.337Z,98477.05
2019-01-19T10:59:04.689Z,98463.46
2019-01-19T11:01:32.361Z,98462.37
2019-01-19T11:04:00.712Z,98453.31
2019-01-19T11:08:53.003Z,98453.05
2019-01-19T11:11:21.878Z,98433.60
2019-01-19T11:13:51.749Z,98438.68
2019-01-19T11:16:19.768Z,98438.68
2019-01-19T11:18:48.091Z,98440.00
2019-01-19T11:21:16.826Z,98433.89
2019-01-19T11:27:08.889Z,98428.28
2019-01-19T11:29:37.050Z,98418.97
2019-01-19T11:32:04.657Z,98414.17
2019-01-19T11:34:32.925Z,98410.98
2019-01-19T11:37:00.316Z,98424.83
2019-01-19T11:39:27.604Z,98415.76
2019-01-19T11:41:55.874Z,98402.43
2019-01-19T11:44:25.777Z,98393.13
2019-01-19T11:46:55.836Z,98393.13
2019-01-19T11:49:24.598Z,98382.99
2019-01-19T11:51:53.774Z,98382.99
2019-01-19T11:54:21.905Z,98403.77
2019-01-19T12:07:09.762Z,98385.94
2019-01-19T12:09:37.238Z,98393.67
2019-01-19T12:12:05.604Z,98386.73
2019-01-19T12:15:16.785Z,98383.00
2019-01-19T12:17:44.759Z,98383.00
2019-01-19T12:20:23.811Z,98380.87
2019-01-19T12:22:51.837Z,98368.58
2019-01-19T12:25:21.797Z,98371.53
2019-01-19T12:27:53.805Z,98367.79
2019-01-19T12:30:24.878Z,98367.79
2019-01-19T12:32:55.802Z,98337.97
2019-01-19T12:35:25.490Z,98337.97
2019-01-19T12:37:54.723Z,98372.06
2019-01-19T12:40:23.733Z,98367.55
2019-01-19T12:42:54.782Z,98358.47
2019-01-19T12:45:29.893Z,98358.98
2019-01-19T12:47:58.603Z,98354.73
2019-01-19T12:50:27.816Z,98354.73
2019-01-19T12:52:56.884Z,98360.61
2019-01-19T12:55:26.828Z,98345.67
2019-01-19T12:57:56.370Z,98340.63
2019-01-19T13:00:26.617Z,98340.63
2019-01-19T13:02:56.836Z,98353.42
2019-01-19T13:07:32.826Z,98339.33
2019-01-19T13:10:17.820Z,98339.83
2019-01-19T13:12:57.934Z,98338.23
2019-01-19T13:19:22.775Z,98332.66
2019-01-19T13:23:05.441Z,98326.27
2019-01-19T13:26:13.341Z,98321.20
2019-01-19T13:29:42.757Z,98318.80
2019-01-19T13:32:55.845Z,98321.46
2019-01-19T13:36:12.051Z,98320.65
2019-01-19T13:40:35.739Z,98314.80
2019-01-19T13:43:32.946Z,98318.52
2019-01-19T13:46:29.165Z,98302.55
2019-01-19T13:50:01.741Z,98302.55
2019-01-19T13:52:46.851Z,98307.63
2019-01-19T13:55:30.834Z,98296.94
2019-01-19T13:58:11.290Z,98311.31
2019-01-19T14:01:48.330Z,98311.31
2019-01-19T14:05:02.823Z,98306.79
2019-01-19T14:07:47.363Z,98304.41
2019-01-19T14:10:44.068Z,98294.80
2019-01-19T14:13:56.879Z,98287.89
2019-01-19T14:17:19.807Z,98288.16
2019-01-19T14:20:28.750Z,98288.16
2019-01-19T14:23:22.758Z,98297.75
2019-01-19T14:26:28.703Z,98292.69
2019-01-19T14:29:16.455Z,98291.64
2019-01-19T14:32:28.309Z,98294.80
2019-01-19T14:35:44.865Z,98287.60
2019-01-19T14:38:56.771Z,98290.77
2019-01-19T14:41:58.371Z,98290.77
2019-01-19T14:45:19.787Z,98287.34
2019-01-19T14:48:08.858Z,98282.05
2019-01-19T14:51:23.022Z,98283.09
2019-01-19T14:54:30.086Z,98272.71
2019-01-19T14:58:08.899Z,98272.71
2019-01-19T15:01:29.047Z,98273.98
2019-01-19T15:04:24.854Z,98273.98
2019-01-19T15:08:03.578Z,98268.86
2019-01-19T15:11:22.727Z,98270.78
2019-01-19T15:14:29.788Z,98270.78
2019-01-19T15:18:00.604Z,98261.72
2019-01-19T15:21:24.759Z,98269.45
2019-01-19T15:24:31.341Z,98263.89
2019-01-19T15:28:02.832Z,98262.80
2019-01-19T15:32:51.708Z,98261.42
2019-01-19T15:38:13.410Z,98256.64
2019-01-19T15:41:21.853Z,98259.37
2019-01-19T15:44:47.482Z,98233.50
2019-01-19T15:47:38.849Z,98233.50
2019-01-19T15:50:39.776Z,98230.03
2019-01-19T15:56:18.378Z,98236.69
2019-01-19T15:59:19.859Z,98236.69
2019-01-19T16:02:26.782Z,98235.63
2019-01-19T16:06:07.988Z,98247.63
2019-01-19T16:09:26.838Z,98247.63
2019-01-19T16:12:20.817Z,98243.89
2019-01-19T16:15:06.800Z,98243.89
2019-01-19T16:19:44.860Z,98245.51
2019-01-19T16:22:50.354Z,98239.92
2019-01-19T16:26:26.822Z,98239.92
2019-01-19T16:29:27.808Z,98230.08
2019-01-19T16:34:36.308Z,98235.89
2019-01-19T16:38:00.871Z,98239.13
2019-01-19T16:41:06.869Z,98229.02
2019-01-19T16:43:59.690Z,98226.91
2019-01-19T16:47:06.864Z,98226.91
2019-01-19T16:49:52.766Z,98231.45
2019-01-19T16:52:55.769Z,98227.42
2019-01-19T16:55:42.826Z,98228.51
2019-01-19T16:58:49.711Z,98229.58
2019-01-19T17:01:54.775Z,98220.80
2019-01-19T17:05:08.539Z,98226.13
2019-01-19T17:07:54.782Z,98221.59
2019-01-19T17:10:39.764Z,98219.97
2019-01-19T17:13:59.051Z,98214.93
2019-01-19T17:16:59.798Z,98218.69
2019-01-19T17:20:12.835Z,98218.69
2019-01-19T17:22:47.855Z,98206.17
2019-01-19T17:25:57.076Z,98206.17
2019-01-19T17:29:11.095Z,98216.82
2019-01-19T17:32:15.362Z,98216.82
2019-01-19T17:35:31.711Z,98221.63
2019-01-19T17:38:41.768Z,98214.70
2019-01-19T17:41:44.800Z,98211.56
2019-01-19T17:44:30.683Z,98210.96
2019-01-19T17:47:31.750Z,98211.26
2019-01-19T17:50:53.761Z,98211.26
2019-01-19T17:53:45.828Z,98219.77
2019-01-19T17:58:53.568Z,98216.84
2019-01-19T18:02:26.491Z,98213.41
2019-01-19T18:05:17.806Z,98208.34
2019-01-19T18:08:06.826Z,98205.41
2019-01-19T18:12:30.801Z,98207.53
2019-01-19T18:15:46.778Z,98208.88
2019-01-19T18:18:51.788Z,98204.58
2019-01-19T18:21:41.356Z,98209.37
2019-01-19T18:24:35.779Z,98208.59
2019-01-19T18:31:12.774Z,98196.38
2019-01-19T18:34:26.367Z,98196.38
2019-01-19T18:37:57.027Z,98195.31
2019-01-19T18:41:04.843Z,98203.27
2019-01-19T18:44:06.410Z,98196.37
2019-01-19T18:47:51.810Z,98197.72
2019-01-19T18:51:21.785Z,98200.09
2019-01-19T18:54:47.870Z,98203.80
2019-01-19T18:58:09.357Z,98180.13
2019-01-19T19:01:39.855Z,98180.13
2019-01-19T19:04:51.399Z,98190.23
2019-01-19T19:08:10.413Z,98190.23
2019-01-19T19:11:49.829Z,98187.30
2019-01-19T19:15:00.321Z,98187.05
2019-01-19T19:18:27.775Z,98187.05
2019-01-19T19:21:28.786Z,98175.09
2019-01-19T19:24:47.228Z,98176.43
2019-01-19T19:28:23.605Z,98176.43
2019-01-19T19:31:40.364Z,98192.63
2019-01-19T19:34:49.818Z,98192.63
2019-01-19T19:37:56.875Z,98191.56
2019-01-19T19:41:06.700Z,98179.05
2019-01-19T19:44:22.697Z,98179.05
2019-01-19T19:47:29.402Z,98182.79
2019-01-19T19:50:46.381Z,98183.06
2019-01-19T19:53:15.400Z,98179.33
2019-01-19T19:55:42.401Z,98178.02
2019-01-19T19:58:12.413Z,98176.39
2019-01-19T20:00:42.009Z,98178.27
2019-01-19T20:03:11.824Z,98179.84
2019-01-19T20:05:40.786Z,98186.52
2019-01-19T20:08:09.244Z,98188.39
2019-01-19T20:10:38.626Z,98195.32
2019-01-19T20:13:07.785Z,98191.30
2019-01-19T20:15:36.370Z,98198.23
2019-01-19T20:18:05.798Z,98193.42
2019-01-19T20:20:34.583Z,98189.69
2019-01-19T20:23:03.813Z,98197.39
2019-01-19T20:25:33.790Z,98195.28
2019-01-19T20:28:02.051Z,98193.42
2019-01-19T20:30:31.875Z,98190.75
2019-01-19T20:33:00.819Z,98173.19
2019-01-19T20:36:14.930Z,98186.78
2019-01-19T20:38:43.332Z,98192.88
2019-01-19T20:41:11.692Z,98192.88
2019-01-19T20:43:39.833Z,98188.36
2019-01-19T20:46:07.830Z,98187.03
2019-01-19T20:48:37.253Z,98190.50
2019-01-19T20:51:06.590Z,98189.70
2019-01-19T20:53:34.821Z,98191.02
2019-01-19T20:56:03.282Z,98167.89
2019-01-19T20:58:32.802Z,98167.89
2019-01-19T21:01:02.610Z,98185.98
2019-01-19T21:07:04.985Z,98182.78
2019-01-19T21:09:33.804Z,98165.77
2019-01-19T21:12:02.764Z,98165.77
2019-01-19T21:14:30.670Z,98180.13
2019-01-19T21:17:00.208Z,98182.50
2019-01-19T21:19:28.329Z,98183.33
2019-01-19T21:21:56.749Z,98179.34
2019-01-19T21:26:27.578Z,98171.34
2019-01-19T21:28:55.400Z,98172.95
2019-01-19T21:31:23.799Z,98181.99
2019-01-19T21:35:17.712Z,98176.65
2019-01-19T21:37:45.974Z,98179.61
2019-01-19T21:40:14.763Z,98158.84
2019-01-19T21:45:17.475Z,98169.99
2019-01-19T21:47:46.440Z,98169.75
2019-01-19T21:50:14.767Z,98164.69
2019-01-19T21:52:43.799Z,98167.36
2019-01-19T21:55:12.351Z,98165.48
2019-01-19T21:57:40.749Z,98167.08
2019-01-19T22:00:11.333Z,98163.10
2019-01-19T22:02:39.758Z,98165.77
2019-01-19T22:05:07.698Z,98164.45
2019-01-19T22:07:36.676Z,98140.77
2019-01-19T22:10:05.802Z,98154.59
2019-01-19T22:12:39.063Z,98164.44
2019-01-19T22:15:11.795Z,98161.77
2019-01-19T22:21:09.525Z,98165.24
2019-01-19T22:23:38.866Z,98167.10
2019-01-19T22:26:08.375Z,98166.81
2019-01-19T22:28:36.572Z,98166.81
2019-01-19T22:31:04.767Z,98174.01
2019-01-19T22:36:15.938Z,98161.21
2019-01-19T22:38:44.396Z,98164.42
2019-01-19T22:41:13.705Z,98164.42
2019-01-19T22:43:41.681Z,98167.11
2019-01-19T22:46:10.046Z,98165.77
2019-01-19T22:48:38.332Z,98157.52
2019-01-19T22:51:11.324Z,98140.79
2019-01-19T22:53:37.594Z,98140.79
2019-01-19T22:56:05.762Z,98155.91
2019-01-19T22:58:34.013Z,98159.36
2019-01-19T23:01:32.839Z,98131.17
2019-01-19T23:04:00.686Z,98153.53
2019-01-19T23:06:28.883Z,98153.53
2019-01-19T23:08:56.900Z,98148.19
2019-01-19T23:11:25.059Z,98150.05
2019-01-19T23:13:53.839Z,98153.52
2019-01-19T23:16:22.099Z,98152.46
2019-01-19T23:18:50.689Z,98152.46
2019-01-19T23:21:18.366Z,98087.84
2019-01-19T23:23:46.705Z,98150.34
2019-01-19T23:26:14.919Z,98148.73
2019-01-19T23:28:43.752Z,98147.92
2019-01-19T23:31:11.706Z,98147.92
2019-01-19T23:33:39.618Z,98154.56
2019-01-19T23:46:35.522Z,98144.21
2019-01-19T23:49:02.926Z,98144.21
2019-01-19T23:51:31.774Z,98147.13
2019-01-19T23:54:00.698Z,98147.13
2019-01-19T23:56:28.772Z,98144.47
2019-01-19T23:58:56.707Z,98139.41
